sensor_id;sensor_type;location;lat;lon;timestamp;temperature;humidity
52867;DHT22;38739;53.324;6.862;2023-02-24T00:01:51;3.90;99.90
52867;DHT22;38739;53.324;6.862;2023-02-24T00:04:25;3.90;99.90
52867;DHT22;38739;53.324;6.862;2023-02-24T00:06:50;3.90;99.90
52867;DHT22;38739;53.324;6.862;2023-02-24T00:09:18;3.80;99.90
52867;DHT22;38739;53.324;6.862;2023-02-24T00:11:52;3.80;99.90
52867;DHT22;38739;53.324;6.862;2023-02-24T00:14:17;3.80;99.90
52867;DHT22;38739;53.324;6.862;2023-02-24T00:16:45;3.70;99.90
52867;DHT22;38739;53.324;6.862;2023-02-24T00:19:12;3.70;99.90
52867;DHT22;38739;53.324;6.862;2023-02-24T00:21:39;3.60;99.90
52867;DHT22;38739;53.324;6.862;2023-02-24T00:24:05;3.60;99.90
52867;DHT22;38739;53.324;6.862;2023-02-24T00:26:32;3.60;99.90
52867;DHT22;38739;53.324;6.862;2023-02-24T00:28:58;3.50;99.90
52867;DHT22;38739;53.324;6.862;2023-02-24T00:31:26;3.50;99.90
52867;DHT22;38739;53.324;6.862;2023-02-24T00:33:56;3.50;99.90
52867;DHT22;38739;53.324;6.862;2023-02-24T00:36:22;3.50;99.90
52867;DHT22;38739;53.324;6.862;2023-02-24T00:41:21;3.50;99.90
52867;DHT22;38739;53.324;6.862;2023-02-24T00:43:55;3.50;99.90
52867;DHT22;38739;53.324;6.862;2023-02-24T00:46:23;3.50;99.90
52867;DHT22;38739;53.324;6.862;2023-02-24T00:48:53;3.40;99.90
52867;DHT22;38739;53.324;6.862;2023-02-24T00:51:23;3.40;99.90
52867;DHT22;38739;53.324;6.862;2023-02-24T00:53:54;3.40;99.90
52867;DHT22;38739;53.324;6.862;2023-02-24T00:56:26;3.40;99.90
52867;DHT22;38739;53.324;6.862;2023-02-24T00:58:53;3.40;99.90
52867;DHT22;38739;53.324;6.862;2023-02-24T01:01:22;3.30;99.90
52867;DHT22;38739;53.324;6.862;2023-02-24T01:03:49;3.30;99.90
52867;DHT22;38739;53.324;6.862;2023-02-24T01:06:20;3.30;99.90
52867;DHT22;38739;53.324;6.862;2023-02-24T01:08:47;3.30;99.90
52867;DHT22;38739;53.324;6.862;2023-02-24T01:11:15;3.40;99.90
52867;DHT22;38739;53.324;6.862;2023-02-24T01:14:03;3.30;99.90
52867;DHT22;38739;53.324;6.862;2023-02-24T01:16:29;3.30;99.90
52867;DHT22;38739;53.324;6.862;2023-02-24T01:18:55;3.40;99.90
52867;DHT22;38739;53.324;6.862;2023-02-24T01:21:21;3.40;99.90
52867;DHT22;38739;53.324;6.862;2023-02-24T01:23:50;3.40;99.90
52867;DHT22;38739;53.324;6.862;2023-02-24T01:26:19;3.40;99.90
52867;DHT22;38739;53.324;6.862;2023-02-24T01:28:45;3.40;99.90
52867;DHT22;38739;53.324;6.862;2023-02-24T01:31:19;3.30;99.90
52867;DHT22;38739;53.324;6.862;2023-02-24T01:33:48;3.30;99.90
52867;DHT22;38739;53.324;6.862;2023-02-24T01:36:20;3.30;99.90
52867;DHT22;38739;53.324;6.862;2023-02-24T01:38:50;3.20;99.90
52867;DHT22;38739;53.324;6.862;2023-02-24T01:41:18;3.20;99.90
52867;DHT22;38739;53.324;6.862;2023-02-24T01:46:40;3.10;99.90
52867;DHT22;38739;53.324;6.862;2023-02-24T01:57:17;2.90;99.90
52867;DHT22;38739;53.324;6.862;2023-02-24T01:59:50;2.90;99.90
52867;DHT22;38739;53.324;6.862;2023-02-24T02:02:18;2.90;99.90
52867;DHT22;38739;53.324;6.862;2023-02-24T02:07:16;2.90;99.90
52867;DHT22;38739;53.324;6.862;2023-02-24T02:09:43;2.90;99.90
52867;DHT22;38739;53.324;6.862;2023-02-24T02:12:10;2.90;99.90
52867;DHT22;38739;53.324;6.862;2023-02-24T02:14:42;2.90;99.90
52867;DHT22;38739;53.324;6.862;2023-02-24T02:17:16;2.90;99.90
52867;DHT22;38739;53.324;6.862;2023-02-24T02:19:55;3.00;99.90
52867;DHT22;38739;53.324;6.862;2023-02-24T02:42:39;3.30;99.90
52867;DHT22;38739;53.324;6.862;2023-02-24T02:47:49;3.40;99.90
52867;DHT22;38739;53.324;6.862;2023-02-24T02:50:24;3.40;99.90
52867;DHT22;38739;53.324;6.862;2023-02-24T02:53:02;3.40;99.90
52867;DHT22;38739;53.324;6.862;2023-02-24T02:58:15;3.40;99.90
52867;DHT22;38739;53.324;6.862;2023-02-24T03:00:47;3.40;99.90
52867;DHT22;38739;53.324;6.862;2023-02-24T03:03:23;3.40;99.90
52867;DHT22;38739;53.324;6.862;2023-02-24T03:05:58;3.40;99.90
52867;DHT22;38739;53.324;6.862;2023-02-24T03:08:28;3.50;99.90
52867;DHT22;38739;53.324;6.862;2023-02-24T03:10:59;3.50;99.90
52867;DHT22;38739;53.324;6.862;2023-02-24T03:13:28;3.40;99.90
52867;DHT22;38739;53.324;6.862;2023-02-24T03:15:58;3.50;99.90
52867;DHT22;38739;53.324;6.862;2023-02-24T03:18:38;3.50;99.90
52867;DHT22;38739;53.324;6.862;2023-02-24T03:21:07;3.50;99.90
52867;DHT22;38739;53.324;6.862;2023-02-24T03:23:42;3.50;99.90
52867;DHT22;38739;53.324;6.862;2023-02-24T03:26:12;3.50;99.90
52867;DHT22;38739;53.324;6.862;2023-02-24T03:29:06;3.50;99.90
52867;DHT22;38739;53.324;6.862;2023-02-24T03:32:18;3.50;99.90
52867;DHT22;38739;53.324;6.862;2023-02-24T03:34:51;3.50;99.90
52867;DHT22;38739;53.324;6.862;2023-02-24T03:37:20;3.50;99.90
52867;DHT22;38739;53.324;6.862;2023-02-24T03:39:53;3.50;99.90
52867;DHT22;38739;53.324;6.862;2023-02-24T03:42:22;3.50;99.90
52867;DHT22;38739;53.324;6.862;2023-02-24T03:44:50;3.60;99.90
52867;DHT22;38739;53.324;6.862;2023-02-24T03:47:17;3.60;99.90
52867;DHT22;38739;53.324;6.862;2023-02-24T03:49:45;3.60;99.90
52867;DHT22;38739;53.324;6.862;2023-02-24T03:52:36;3.60;99.90
52867;DHT22;38739;53.324;6.862;2023-02-24T03:55:42;3.60;99.90
52867;DHT22;38739;53.324;6.862;2023-02-24T04:14:11;3.70;99.90
52867;DHT22;38739;53.324;6.862;2023-02-24T04:16:50;3.80;99.90
52867;DHT22;38739;53.324;6.862;2023-02-24T04:19:20;3.80;99.90
52867;DHT22;38739;53.324;6.862;2023-02-24T04:21:49;3.80;99.90
52867;DHT22;38739;53.324;6.862;2023-02-24T04:24:21;3.80;99.90
52867;DHT22;38739;53.324;6.862;2023-02-24T04:26:49;3.80;99.90
52867;DHT22;38739;53.324;6.862;2023-02-24T04:29:19;3.80;99.90
52867;DHT22;38739;53.324;6.862;2023-02-24T04:31:57;3.80;99.90
52867;DHT22;38739;53.324;6.862;2023-02-24T04:34:25;3.80;99.90
52867;DHT22;38739;53.324;6.862;2023-02-24T04:36:56;3.90;99.90
52867;DHT22;38739;53.324;6.862;2023-02-24T04:39:24;3.90;99.90
52867;DHT22;38739;53.324;6.862;2023-02-24T04:41:49;3.90;99.90
52867;DHT22;38739;53.324;6.862;2023-02-24T04:44:16;3.90;99.90
52867;DHT22;38739;53.324;6.862;2023-02-24T04:46:44;3.90;99.90
52867;DHT22;38739;53.324;6.862;2023-02-24T04:49:10;3.90;99.90
52867;DHT22;38739;53.324;6.862;2023-02-24T04:51:37;3.90;99.90
52867;DHT22;38739;53.324;6.862;2023-02-24T04:54:17;3.90;99.90
52867;DHT22;38739;53.324;6.862;2023-02-24T04:56:47;3.90;99.90
52867;DHT22;38739;53.324;6.862;2023-02-24T04:59:16;3.90;99.90
52867;DHT22;38739;53.324;6.862;2023-02-24T05:01:43;3.90;99.90
52867;DHT22;38739;53.324;6.862;2023-02-24T05:04:10;3.90;99.90
52867;DHT22;38739;53.324;6.862;2023-02-24T05:06:36;3.90;99.90
52867;DHT22;38739;53.324;6.862;2023-02-24T05:09:15;3.90;99.90
52867;DHT22;38739;53.324;6.862;2023-02-24T05:11:44;3.90;99.90
52867;DHT22;38739;53.324;6.862;2023-02-24T05:14:11;4.00;99.90
52867;DHT22;38739;53.324;6.862;2023-02-24T05:16:45;4.00;99.90
52867;DHT22;38739;53.324;6.862;2023-02-24T05:19:12;4.00;99.90
52867;DHT22;38739;53.324;6.862;2023-02-24T05:21:57;4.00;99.90
52867;DHT22;38739;53.324;6.862;2023-02-24T05:24:29;4.00;99.90
52867;DHT22;38739;53.324;6.862;2023-02-24T05:26:56;4.00;99.90
52867;DHT22;38739;53.324;6.862;2023-02-24T05:29:24;4.00;99.90
52867;DHT22;38739;53.324;6.862;2023-02-24T05:31:51;4.00;99.90
52867;DHT22;38739;53.324;6.862;2023-02-24T05:34:19;4.00;99.90
52867;DHT22;38739;53.324;6.862;2023-02-24T05:36:44;4.00;99.90
52867;DHT22;38739;53.324;6.862;2023-02-24T05:39:11;4.00;99.90
52867;DHT22;38739;53.324;6.862;2023-02-24T05:41:45;4.00;99.90
52867;DHT22;38739;53.324;6.862;2023-02-24T05:44:18;4.00;99.90
52867;DHT22;38739;53.324;6.862;2023-02-24T05:46:55;4.00;99.90
52867;DHT22;38739;53.324;6.862;2023-02-24T05:49:28;4.10;99.90
52867;DHT22;38739;53.324;6.862;2023-02-24T05:51:59;4.00;99.90
52867;DHT22;38739;53.324;6.862;2023-02-24T05:54:35;4.00;99.90
52867;DHT22;38739;53.324;6.862;2023-02-24T05:57:09;4.00;99.90
52867;DHT22;38739;53.324;6.862;2023-02-24T05:59:39;4.00;99.90
52867;DHT22;38739;53.324;6.862;2023-02-24T06:02:22;4.00;99.90
52867;DHT22;38739;53.324;6.862;2023-02-24T06:05:04;4.00;99.90
52867;DHT22;38739;53.324;6.862;2023-02-24T06:07:33;4.00;99.90
52867;DHT22;38739;53.324;6.862;2023-02-24T06:10:02;4.00;99.90
52867;DHT22;38739;53.324;6.862;2023-02-24T06:12:33;4.00;99.90
52867;DHT22;38739;53.324;6.862;2023-02-24T06:15:00;4.00;99.90
52867;DHT22;38739;53.324;6.862;2023-02-24T06:17:27;4.00;99.90
52867;DHT22;38739;53.324;6.862;2023-02-24T06:19:53;4.00;99.90
52867;DHT22;38739;53.324;6.862;2023-02-24T06:22:21;4.10;99.90
52867;DHT22;38739;53.324;6.862;2023-02-24T06:24:48;4.00;99.90
52867;DHT22;38739;53.324;6.862;2023-02-24T06:27:18;4.00;99.90
52867;DHT22;38739;53.324;6.862;2023-02-24T06:29:45;4.00;99.90
52867;DHT22;38739;53.324;6.862;2023-02-24T06:32:14;4.00;99.90
52867;DHT22;38739;53.324;6.862;2023-02-24T06:34:40;4.00;99.90
52867;DHT22;38739;53.324;6.862;2023-02-24T06:37:11;4.00;99.90
52867;DHT22;38739;53.324;6.862;2023-02-24T06:39:38;4.00;99.90
52867;DHT22;38739;53.324;6.862;2023-02-24T06:42:05;4.00;99.90
52867;DHT22;38739;53.324;6.862;2023-02-24T06:44:37;4.10;99.90
52867;DHT22;38739;53.324;6.862;2023-02-24T06:47:09;4.10;99.90
52867;DHT22;38739;53.324;6.862;2023-02-24T06:49:34;4.10;99.90
52867;DHT22;38739;53.324;6.862;2023-02-24T06:52:01;4.10;99.90
52867;DHT22;38739;53.324;6.862;2023-02-24T06:54:28;4.10;99.90
52867;DHT22;38739;53.324;6.862;2023-02-24T06:56:55;4.10;99.90
52867;DHT22;38739;53.324;6.862;2023-02-24T06:59:23;4.20;99.90
52867;DHT22;38739;53.324;6.862;2023-02-24T07:01:57;4.20;99.90
52867;DHT22;38739;53.324;6.862;2023-02-24T07:04:24;4.20;99.90
52867;DHT22;38739;53.324;6.862;2023-02-24T07:06:52;4.20;99.90
52867;DHT22;38739;53.324;6.862;2023-02-24T07:09:22;4.20;99.90
52867;DHT22;38739;53.324;6.862;2023-02-24T07:11:49;4.30;99.90
52867;DHT22;38739;53.324;6.862;2023-02-24T07:14:20;4.30;99.90
52867;DHT22;38739;53.324;6.862;2023-02-24T07:16:47;4.30;99.90
52867;DHT22;38739;53.324;6.862;2023-02-24T07:19:20;4.40;99.90
52867;DHT22;38739;53.324;6.862;2023-02-24T07:21:46;4.30;99.90
52867;DHT22;38739;53.324;6.862;2023-02-24T07:24:19;4.30;99.90
52867;DHT22;38739;53.324;6.862;2023-02-24T07:26:57;4.30;99.90
52867;DHT22;38739;53.324;6.862;2023-02-24T07:29:28;4.40;99.90
52867;DHT22;38739;53.324;6.862;2023-02-24T07:31:58;4.40;99.90
52867;DHT22;38739;53.324;6.862;2023-02-24T07:34:25;4.50;99.90
52867;DHT22;38739;53.324;6.862;2023-02-24T07:36:53;4.50;99.90
52867;DHT22;38739;53.324;6.862;2023-02-24T07:39:23;4.50;99.90
52867;DHT22;38739;53.324;6.862;2023-02-24T07:41:50;4.50;99.90
52867;DHT22;38739;53.324;6.862;2023-02-24T07:44:21;4.50;99.90
52867;DHT22;38739;53.324;6.862;2023-02-24T07:46:50;4.60;99.90
52867;DHT22;38739;53.324;6.862;2023-02-24T07:49:19;4.60;99.90
52867;DHT22;38739;53.324;6.862;2023-02-24T07:51:46;4.60;99.90
52867;DHT22;38739;53.324;6.862;2023-02-24T07:54:18;4.60;99.90
52867;DHT22;38739;53.324;6.862;2023-02-24T07:56:46;4.70;99.90
52867;DHT22;38739;53.324;6.862;2023-02-24T07:59:27;4.70;99.90
52867;DHT22;38739;53.324;6.862;2023-02-24T08:01:54;4.70;99.90
52867;DHT22;38739;53.324;6.862;2023-02-24T08:04:23;4.70;99.90
52867;DHT22;38739;53.324;6.862;2023-02-24T08:06:49;4.70;99.90
52867;DHT22;38739;53.324;6.862;2023-02-24T08:09:28;4.70;99.90
52867;DHT22;38739;53.324;6.862;2023-02-24T08:12:11;4.80;99.90
52867;DHT22;38739;53.324;6.862;2023-02-24T08:14:45;4.80;99.90
52867;DHT22;38739;53.324;6.862;2023-02-24T08:17:15;4.80;99.90
52867;DHT22;38739;53.324;6.862;2023-02-24T08:19:48;4.90;99.90
52867;DHT22;38739;53.324;6.862;2023-02-24T08:22:15;4.90;99.90
52867;DHT22;38739;53.324;6.862;2023-02-24T08:24:46;4.90;99.90
52867;DHT22;38739;53.324;6.862;2023-02-24T08:27:19;4.90;99.90
52867;DHT22;38739;53.324;6.862;2023-02-24T08:29:50;4.90;99.90
52867;DHT22;38739;53.324;6.862;2023-02-24T08:32:40;4.90;99.90
52867;DHT22;38739;53.324;6.862;2023-02-24T08:35:17;4.90;99.90
52867;DHT22;38739;53.324;6.862;2023-02-24T08:37:46;5.00;99.90
52867;DHT22;38739;53.324;6.862;2023-02-24T08:40:24;5.00;99.90
52867;DHT22;38739;53.324;6.862;2023-02-24T08:42:58;5.00;99.90
52867;DHT22;38739;53.324;6.862;2023-02-24T08:45:26;5.00;99.90
52867;DHT22;38739;53.324;6.862;2023-02-24T08:47:58;5.10;99.90
52867;DHT22;38739;53.324;6.862;2023-02-24T08:50:28;5.00;99.90
52867;DHT22;38739;53.324;6.862;2023-02-24T08:52:58;5.10;99.90
52867;DHT22;38739;53.324;6.862;2023-02-24T08:55:25;5.10;99.90
52867;DHT22;38739;53.324;6.862;2023-02-24T08:57:58;5.10;99.90
52867;DHT22;38739;53.324;6.862;2023-02-24T09:00:30;5.20;99.90
52867;DHT22;38739;53.324;6.862;2023-02-24T09:03:17;5.20;99.90
52867;DHT22;38739;53.324;6.862;2023-02-24T09:06:07;5.30;99.90
52867;DHT22;38739;53.324;6.862;2023-02-24T09:08:54;5.30;99.90
52867;DHT22;38739;53.324;6.862;2023-02-24T09:11:39;5.30;99.90
52867;DHT22;38739;53.324;6.862;2023-02-24T09:14:18;5.40;99.90
52867;DHT22;38739;53.324;6.862;2023-02-24T09:16:49;5.40;99.90
52867;DHT22;38739;53.324;6.862;2023-02-24T09:19:33;5.40;99.90
52867;DHT22;38739;53.324;6.862;2023-02-24T09:22:06;5.50;99.90
52867;DHT22;38739;53.324;6.862;2023-02-24T09:24:40;5.50;99.90
52867;DHT22;38739;53.324;6.862;2023-02-24T09:27:09;5.50;99.90
52867;DHT22;38739;53.324;6.862;2023-02-24T09:29:41;5.60;99.90
52867;DHT22;38739;53.324;6.862;2023-02-24T09:32:16;5.50;99.90
52867;DHT22;38739;53.324;6.862;2023-02-24T09:34:42;5.50;99.90
52867;DHT22;38739;53.324;6.862;2023-02-24T09:37:10;5.60;99.90
52867;DHT22;38739;53.324;6.862;2023-02-24T09:39:50;5.60;99.90
52867;DHT22;38739;53.324;6.862;2023-02-24T09:42:36;5.70;99.90
52867;DHT22;38739;53.324;6.862;2023-02-24T09:45:22;5.80;99.90
52867;DHT22;38739;53.324;6.862;2023-02-24T09:48:11;5.80;99.90
52867;DHT22;38739;53.324;6.862;2023-02-24T09:50:41;5.90;99.90
52867;DHT22;38739;53.324;6.862;2023-02-24T09:53:27;6.00;99.90
52867;DHT22;38739;53.324;6.862;2023-02-24T09:56:28;6.10;99.90
52867;DHT22;38739;53.324;6.862;2023-02-24T10:03:13;6.40;99.90
52867;DHT22;38739;53.324;6.862;2023-02-24T10:06:01;6.60;99.90
52867;DHT22;38739;53.324;6.862;2023-02-24T10:08:39;6.80;99.90
52867;DHT22;38739;53.324;6.862;2023-02-24T10:11:09;7.20;99.90
52867;DHT22;38739;53.324;6.862;2023-02-24T10:13:56;8.10;99.90
52867;DHT22;38739;53.324;6.862;2023-02-24T10:16:23;8.90;99.90
52867;DHT22;38739;53.324;6.862;2023-02-24T10:19:04;9.40;99.90
52867;DHT22;38739;53.324;6.862;2023-02-24T10:22:05;10.10;99.90
52867;DHT22;38739;53.324;6.862;2023-02-24T10:24:43;10.10;99.90
52867;DHT22;38739;53.324;6.862;2023-02-24T10:27:26;9.80;99.90
52867;DHT22;38739;53.324;6.862;2023-02-24T10:30:02;9.30;99.90
52867;DHT22;38739;53.324;6.862;2023-02-24T10:32:55;8.90;99.90
52867;DHT22;38739;53.324;6.862;2023-02-24T10:35:26;8.60;99.90
52867;DHT22;38739;53.324;6.862;2023-02-24T10:38:01;8.30;99.90
52867;DHT22;38739;53.324;6.862;2023-02-24T10:40:33;8.20;99.90
52867;DHT22;38739;53.324;6.862;2023-02-24T10:43:22;8.10;99.90
52867;DHT22;38739;53.324;6.862;2023-02-24T10:46:02;8.00;99.90
52867;DHT22;38739;53.324;6.862;2023-02-24T10:48:33;8.10;99.90
52867;DHT22;38739;53.324;6.862;2023-02-24T10:51:10;8.20;99.90
52867;DHT22;38739;53.324;6.862;2023-02-24T10:53:44;8.30;99.90
52867;DHT22;38739;53.324;6.862;2023-02-24T10:56:17;8.30;99.90
52867;DHT22;38739;53.324;6.862;2023-02-24T10:59:14;8.20;99.90
52867;DHT22;38739;53.324;6.862;2023-02-24T11:02:22;8.30;99.90
52867;DHT22;38739;53.324;6.862;2023-02-24T11:04:56;8.80;99.90
52867;DHT22;38739;53.324;6.862;2023-02-24T11:07:22;9.30;99.90
52867;DHT22;38739;53.324;6.862;2023-02-24T11:10:16;9.50;99.90
52867;DHT22;38739;53.324;6.862;2023-02-24T11:12:51;9.70;99.90
52867;DHT22;38739;53.324;6.862;2023-02-24T11:15:51;10.10;99.90
52867;DHT22;38739;53.324;6.862;2023-02-24T11:18:38;10.60;99.90
52867;DHT22;38739;53.324;6.862;2023-02-24T11:21:11;11.20;99.90
52867;DHT22;38739;53.324;6.862;2023-02-24T11:23:50;11.70;99.90
52867;DHT22;38739;53.324;6.862;2023-02-24T11:26:20;11.60;99.90
52867;DHT22;38739;53.324;6.862;2023-02-24T11:29:02;11.20;99.90
52867;DHT22;38739;53.324;6.862;2023-02-24T11:40:20;9.70;99.90
52867;DHT22;38739;53.324;6.862;2023-02-24T11:42:59;9.50;99.90
52867;DHT22;38739;53.324;6.862;2023-02-24T11:45:43;9.40;99.90
52867;DHT22;38739;53.324;6.862;2023-02-24T11:51:18;10.30;99.90
52867;DHT22;38739;53.324;6.862;2023-02-24T11:53:50;10.40;99.90
52867;DHT22;38739;53.324;6.862;2023-02-24T12:02:00;10.80;99.90
52867;DHT22;38739;53.324;6.862;2023-02-24T12:04:32;10.50;99.90
52867;DHT22;38739;53.324;6.862;2023-02-24T12:09:53;9.70;99.90
52867;DHT22;38739;53.324;6.862;2023-02-24T12:12:27;9.40;99.90
52867;DHT22;38739;53.324;6.862;2023-02-24T12:15:09;9.00;99.90
52867;DHT22;38739;53.324;6.862;2023-02-24T12:20:51;8.70;99.90
52867;DHT22;38739;53.324;6.862;2023-02-24T12:23:28;8.60;99.90
52867;DHT22;38739;53.324;6.862;2023-02-24T12:28:49;8.70;99.90
52867;DHT22;38739;53.324;6.862;2023-02-24T12:32:03;8.80;99.90
52867;DHT22;38739;53.324;6.862;2023-02-24T12:40:56;10.00;99.90
52867;DHT22;38739;53.324;6.862;2023-02-24T12:43:30;11.00;99.90
52867;DHT22;38739;53.324;6.862;2023-02-24T12:46:30;11.80;99.90
52867;DHT22;38739;53.324;6.862;2023-02-24T12:49:16;12.80;99.90
52867;DHT22;38739;53.324;6.862;2023-02-24T12:54:24;15.20;99.90
52867;DHT22;38739;53.324;6.862;2023-02-24T12:57:19;15.30;99.90
52867;DHT22;38739;53.324;6.862;2023-02-24T12:59:50;14.70;99.90
52867;DHT22;38739;53.324;6.862;2023-02-24T13:02:38;13.90;99.90
52867;DHT22;38739;53.324;6.862;2023-02-24T13:05:17;13.40;99.90
52867;DHT22;38739;53.324;6.862;2023-02-24T13:11:33;13.20;99.90
52867;DHT22;38739;53.324;6.862;2023-02-24T13:16:43;12.70;99.90
52867;DHT22;38739;53.324;6.862;2023-02-24T13:19:28;12.30;99.90
52867;DHT22;38739;53.324;6.862;2023-02-24T13:24:53;11.40;99.90
52867;DHT22;38739;53.324;6.862;2023-02-24T13:27:32;11.00;99.90
52867;DHT22;38739;53.324;6.862;2023-02-24T13:32:43;10.30;99.90
52867;DHT22;38739;53.324;6.862;2023-02-24T13:37:43;10.30;99.90
52867;DHT22;38739;53.324;6.862;2023-02-24T13:42:57;9.90;99.90
52867;DHT22;38739;53.324;6.862;2023-02-24T14:01:13;9.00;99.90
52867;DHT22;38739;53.324;6.862;2023-02-24T14:03:46;9.20;99.90
52867;DHT22;38739;53.324;6.862;2023-02-24T14:06:25;9.20;99.90
52867;DHT22;38739;53.324;6.862;2023-02-24T14:08:58;8.90;99.90
52867;DHT22;38739;53.324;6.862;2023-02-24T14:11:28;8.70;99.90
52867;DHT22;38739;53.324;6.862;2023-02-24T14:13:57;8.50;99.90
52867;DHT22;38739;53.324;6.862;2023-02-24T14:16:26;8.30;99.90
52867;DHT22;38739;53.324;6.862;2023-02-24T14:18:59;8.20;99.90
52867;DHT22;38739;53.324;6.862;2023-02-24T14:21:30;8.10;99.90
52867;DHT22;38739;53.324;6.862;2023-02-24T14:24:00;8.10;99.90
52867;DHT22;38739;53.324;6.862;2023-02-24T14:27:00;8.10;99.90
52867;DHT22;38739;53.324;6.862;2023-02-24T14:29:28;7.80;99.90
52867;DHT22;38739;53.324;6.862;2023-02-24T14:31:56;7.50;99.90
52867;DHT22;38739;53.324;6.862;2023-02-24T14:34:25;7.50;99.90
52867;DHT22;38739;53.324;6.862;2023-02-24T14:36:57;7.50;99.90
52867;DHT22;38739;53.324;6.862;2023-02-24T14:39:26;7.60;99.90
52867;DHT22;38739;53.324;6.862;2023-02-24T14:42:11;7.60;99.90
52867;DHT22;38739;53.324;6.862;2023-02-24T14:44:46;7.50;99.90
52867;DHT22;38739;53.324;6.862;2023-02-24T14:47:40;7.60;99.90
52867;DHT22;38739;53.324;6.862;2023-02-24T14:50:18;7.60;99.90
52867;DHT22;38739;53.324;6.862;2023-02-24T14:52:51;7.70;99.90
52867;DHT22;38739;53.324;6.862;2023-02-24T14:55:18;7.70;99.90
52867;DHT22;38739;53.324;6.862;2023-02-24T15:00:46;7.80;99.90
52867;DHT22;38739;53.324;6.862;2023-02-24T15:03:35;7.80;99.90
52867;DHT22;38739;53.324;6.862;2023-02-24T15:06:14;7.80;99.90
52867;DHT22;38739;53.324;6.862;2023-02-24T15:08:46;7.80;99.90
52867;DHT22;38739;53.324;6.862;2023-02-24T15:13:45;7.60;99.90
52867;DHT22;38739;53.324;6.862;2023-02-24T15:16:39;7.50;99.90
52867;DHT22;38739;53.324;6.862;2023-02-24T15:21:46;7.30;99.90
52867;DHT22;38739;53.324;6.862;2023-02-24T15:29:22;7.10;99.90
52867;DHT22;38739;53.324;6.862;2023-02-24T15:31:51;7.00;99.90
52867;DHT22;38739;53.324;6.862;2023-02-24T15:34:26;7.00;99.90
52867;DHT22;38739;53.324;6.862;2023-02-24T15:36:55;7.00;99.90
52867;DHT22;38739;53.324;6.862;2023-02-24T15:39:30;7.00;99.90
52867;DHT22;38739;53.324;6.862;2023-02-24T15:42:28;7.00;99.90
52867;DHT22;38739;53.324;6.862;2023-02-24T15:45:06;6.90;99.90
52867;DHT22;38739;53.324;6.862;2023-02-24T15:47:51;6.90;99.90
52867;DHT22;38739;53.324;6.862;2023-02-24T15:50:21;6.90;99.90
52867;DHT22;38739;53.324;6.862;2023-02-24T15:52:56;6.90;99.90
52867;DHT22;38739;53.324;6.862;2023-02-24T15:55:22;6.80;99.90
52867;DHT22;38739;53.324;6.862;2023-02-24T15:57:56;6.80;99.90
52867;DHT22;38739;53.324;6.862;2023-02-24T16:00:23;6.70;99.90
52867;DHT22;38739;53.324;6.862;2023-02-24T16:02:49;6.70;99.90
52867;DHT22;38739;53.324;6.862;2023-02-24T16:05:15;6.70;99.90
52867;DHT22;38739;53.324;6.862;2023-02-24T16:07:43;6.60;99.90
52867;DHT22;38739;53.324;6.862;2023-02-24T16:10:22;6.50;99.90
52867;DHT22;38739;53.324;6.862;2023-02-24T16:12:57;6.40;99.90
52867;DHT22;38739;53.324;6.862;2023-02-24T16:15:30;6.20;99.90
52867;DHT22;38739;53.324;6.862;2023-02-24T16:18:02;6.10;99.90
52867;DHT22;38739;53.324;6.862;2023-02-24T16:20:29;6.00;99.90
52867;DHT22;38739;53.324;6.862;2023-02-24T16:23:03;5.90;99.90
52867;DHT22;38739;53.324;6.862;2023-02-24T16:25:39;5.90;99.90
52867;DHT22;38739;53.324;6.862;2023-02-24T16:28:08;5.80;99.90
52867;DHT22;38739;53.324;6.862;2023-02-24T16:30:34;5.80;99.90
52867;DHT22;38739;53.324;6.862;2023-02-24T16:33:00;5.80;99.90
52867;DHT22;38739;53.324;6.862;2023-02-24T16:35:27;5.80;99.90
52867;DHT22;38739;53.324;6.862;2023-02-24T16:37:53;5.70;99.90
52867;DHT22;38739;53.324;6.862;2023-02-24T16:40:27;5.70;99.90
52867;DHT22;38739;53.324;6.862;2023-02-24T16:42:56;5.70;99.90
52867;DHT22;38739;53.324;6.862;2023-02-24T16:45:26;5.70;99.90
52867;DHT22;38739;53.324;6.862;2023-02-24T16:47:57;5.70;99.90
52867;DHT22;38739;53.324;6.862;2023-02-24T16:50:33;5.60;99.90
52867;DHT22;38739;53.324;6.862;2023-02-24T16:53:00;5.60;99.90
52867;DHT22;38739;53.324;6.862;2023-02-24T16:55:26;5.50;99.90
52867;DHT22;38739;53.324;6.862;2023-02-24T16:57:52;5.50;99.90
52867;DHT22;38739;53.324;6.862;2023-02-24T17:00:18;5.50;99.90
52867;DHT22;38739;53.324;6.862;2023-02-24T17:02:48;5.50;99.90
52867;DHT22;38739;53.324;6.862;2023-02-24T17:05:20;5.50;99.90
52867;DHT22;38739;53.324;6.862;2023-02-24T17:07:48;5.50;99.90
52867;DHT22;38739;53.324;6.862;2023-02-24T17:10:17;5.50;99.90
52867;DHT22;38739;53.324;6.862;2023-02-24T17:12:45;5.50;99.90
52867;DHT22;38739;53.324;6.862;2023-02-24T17:15:16;5.50;99.90
52867;DHT22;38739;53.324;6.862;2023-02-24T17:17:42;5.40;99.90
52867;DHT22;38739;53.324;6.862;2023-02-24T17:20:11;5.40;99.90
52867;DHT22;38739;53.324;6.862;2023-02-24T17:22:37;5.40;99.90
52867;DHT22;38739;53.324;6.862;2023-02-24T17:25:03;5.40;99.90
52867;DHT22;38739;53.324;6.862;2023-02-24T17:27:28;5.40;99.90
52867;DHT22;38739;53.324;6.862;2023-02-24T17:29:54;5.40;99.90
52867;DHT22;38739;53.324;6.862;2023-02-24T17:32:20;5.40;99.90
52867;DHT22;38739;53.324;6.862;2023-02-24T17:34:45;5.40;99.90
52867;DHT22;38739;53.324;6.862;2023-02-24T17:37:14;5.40;99.90
52867;DHT22;38739;53.324;6.862;2023-02-24T17:39:40;5.40;99.90
52867;DHT22;38739;53.324;6.862;2023-02-24T17:42:05;5.40;99.90
52867;DHT22;38739;53.324;6.862;2023-02-24T17:44:31;5.50;99.90
52867;DHT22;38739;53.324;6.862;2023-02-24T17:46:57;5.50;99.90
52867;DHT22;38739;53.324;6.862;2023-02-24T17:49:25;5.50;99.90
52867;DHT22;38739;53.324;6.862;2023-02-24T17:51:51;5.50;99.90
52867;DHT22;38739;53.324;6.862;2023-02-24T17:54:17;5.40;99.90
52867;DHT22;38739;53.324;6.862;2023-02-24T17:56:42;5.40;99.90
52867;DHT22;38739;53.324;6.862;2023-02-24T17:59:08;5.40;99.90
52867;DHT22;38739;53.324;6.862;2023-02-24T18:01:36;5.30;99.90
52867;DHT22;38739;53.324;6.862;2023-02-24T18:04:02;5.30;99.90
52867;DHT22;38739;53.324;6.862;2023-02-24T18:06:30;5.20;99.90
52867;DHT22;38739;53.324;6.862;2023-02-24T18:08:56;5.30;99.90
52867;DHT22;38739;53.324;6.862;2023-02-24T18:11:21;5.30;99.90
52867;DHT22;38739;53.324;6.862;2023-02-24T18:13:47;5.30;99.90
52867;DHT22;38739;53.324;6.862;2023-02-24T18:16:17;5.30;99.90
52867;DHT22;38739;53.324;6.862;2023-02-24T18:18:43;5.30;99.90
52867;DHT22;38739;53.324;6.862;2023-02-24T18:21:09;5.40;99.90
52867;DHT22;38739;53.324;6.862;2023-02-24T18:23:35;5.40;99.90
52867;DHT22;38739;53.324;6.862;2023-02-24T18:26:06;5.40;99.90
52867;DHT22;38739;53.324;6.862;2023-02-24T18:28:33;5.40;99.90
52867;DHT22;38739;53.324;6.862;2023-02-24T18:30:59;5.40;99.90
52867;DHT22;38739;53.324;6.862;2023-02-24T18:33:37;5.40;99.90
52867;DHT22;38739;53.324;6.862;2023-02-24T18:36:02;5.40;99.90
52867;DHT22;38739;53.324;6.862;2023-02-24T18:38:28;5.40;99.90
52867;DHT22;38739;53.324;6.862;2023-02-24T18:41:02;5.40;99.90
52867;DHT22;38739;53.324;6.862;2023-02-24T18:43:29;5.30;99.90